Airfield :
LOGIN :

Register | Disclaimer

   EN    FR    IT 

 










Legend :    VFR   Marginal VFR   IFR   Intensive IFR   Very Intensive IFR
Visi :
Ceiling :
>= 8 km
>= 3000ft
5 to 8 km
1000 to 3000 ft
1500m to 5 km
500 to 1000 ft
800 to 1500m
200 to 500 ft
< 800m
< 200 ft
Symbols :   Thunderstorms  Fog  Heavy snow  Heavy precipitations  Wind > 20 kt
SIGMETs :     Misc.  Thunderstorms  Icing  Turbulence  Mountain Waves  Volcanic Ashes







- Airport Elevation : 1789 ft
- IATA code : PRN


BKPR - Pristina

CURRENT METAR :
  • 161000Z 35005KT 320V030 9999 FEW030 SCT050 05/M04 Q1031 NOSIG RMK 17010095

EXPIRED METARs :
  • 160930Z 01007KT 9999 SCT040 04/M04 Q1031 NOSIG RMK 17010095
  • 160900Z VRB03KT 9999 SCT040 04/M03 Q1031 NOSIG RMK 17010095
  • 160830Z VRB02KT 9999 FEW035 04/M03 Q1031 NOSIG RMK 17010095
  • 160800Z VRB01KT 9999 FEW030 02/M03 Q1031 NOSIG RMK 17010095
  • 160730Z VRB02KT 9999 SCT070 M00/M04 Q1031 NOSIG RMK 17010095
  • 160700Z VRB03KT 9999 BKN060 M02/M05 Q1031 NOSIG RMK 17010095

TAF TAF BKPR
Valid from the 16 at 06:00 until the 17 at 06:00 UTC


160530Z 1606/1706 01008KT 9999 SCT060
No reported NOTAMs for that airfield.



MET'MAP, your aeronautical weather chart ! - Copyright ORBIFLY December 2007 - Disclaimer

ORBIFLY MET'MAP TEAM :

Programming & Development : Alexandra Zaïnal
Concept & Development : Baudouin d'Aumeries
Co-Development & Prog : Marc-Olivier Méhu
Technical & hardware support : Manuel Goepfert

Contact : metmap@orbifly.com




SOURCES & CREDITS :

   NOAA